sensor_id;sensor_type;location;lat;lon;timestamp;temperature;humidity
935;DHT22;454;53.254;10.400;2023-03-24T05:00:31;11.10;99.90
935;DHT22;454;53.254;10.400;2023-03-24T05:02:58;11.10;99.90
935;DHT22;454;53.254;10.400;2023-03-24T05:05:25;11.10;99.90
935;DHT22;454;53.254;10.400;2023-03-24T05:07:51;11.20;99.90
935;DHT22;454;53.254;10.400;2023-03-24T05:10:19;11.20;99.90
935;DHT22;454;53.254;10.400;2023-03-24T05:12:46;11.20;99.90
935;DHT22;454;53.254;10.400;2023-03-24T05:15:12;11.20;99.90
935;DHT22;454;53.254;10.400;2023-03-24T05:17:41;11.20;99.90
935;DHT22;454;53.254;10.400;2023-03-24T05:20:09;11.20;99.90
935;DHT22;454;53.254;10.400;2023-03-24T05:22:36;11.20;99.90
935;DHT22;454;53.254;10.400;2023-03-24T05:25:04;11.30;99.90
935;DHT22;454;53.254;10.400;2023-03-24T05:27:31;11.30;99.90
935;DHT22;454;53.254;10.400;2023-03-24T05:29:58;11.30;99.90
935;DHT22;454;53.254;10.400;2023-03-24T05:32:25;11.30;99.90
935;DHT22;454;53.254;10.400;2023-03-24T05:34:53;11.30;99.90
935;DHT22;454;53.254;10.400;2023-03-24T05:37:20;11.30;99.90
935;DHT22;454;53.254;10.400;2023-03-24T05:39:46;11.30;99.90
935;DHT22;454;53.254;10.400;2023-03-24T05:42:14;11.30;99.90
935;DHT22;454;53.254;10.400;2023-03-24T05:44:41;11.40;99.90
935;DHT22;454;53.254;10.400;2023-03-24T05:47:08;11.40;99.90
935;DHT22;454;53.254;10.400;2023-03-24T05:49:35;11.40;99.90
935;DHT22;454;53.254;10.400;2023-03-24T05:52:04;11.50;99.90
935;DHT22;454;53.254;10.400;2023-03-24T05:54:33;11.50;99.90
935;DHT22;454;53.254;10.400;2023-03-24T05:57:00;11.50;99.90
935;DHT22;454;53.254;10.400;2023-03-24T05:59:27;11.50;99.90
935;DHT22;454;53.254;10.400;2023-03-24T06:01:54;11.50;99.90
935;DHT22;454;53.254;10.400;2023-03-24T06:04:22;11.60;99.90
935;DHT22;454;53.254;10.400;2023-03-24T06:06:49;11.60;99.90
935;DHT22;454;53.254;10.400;2023-03-24T06:09:17;11.60;99.90
935;DHT22;454;53.254;10.400;2023-03-24T06:11:44;11.60;99.90
935;DHT22;454;53.254;10.400;2023-03-24T06:14:11;11.60;99.90
935;DHT22;454;53.254;10.400;2023-03-24T06:16:39;11.60;99.90
935;DHT22;454;53.254;10.400;2023-03-24T06:19:05;11.60;99.90
935;DHT22;454;53.254;10.400;2023-03-24T06:21:32;11.70;99.90
935;DHT22;454;53.254;10.400;2023-03-24T06:24:00;11.70;99.90
935;DHT22;454;53.254;10.400;2023-03-24T06:26:29;11.70;99.90
935;DHT22;454;53.254;10.400;2023-03-24T06:28:56;11.70;99.90
935;DHT22;454;53.254;10.400;2023-03-24T06:31:23;11.70;99.90
935;DHT22;454;53.254;10.400;2023-03-24T06:33:52;11.70;99.90
935;DHT22;454;53.254;10.400;2023-03-24T06:36:19;11.70;99.90
935;DHT22;454;53.254;10.400;2023-03-24T06:38:47;11.60;99.90
935;DHT22;454;53.254;10.400;2023-03-24T06:41:14;11.60;99.90
935;DHT22;454;53.254;10.400;2023-03-24T06:43:43;11.60;99.90
935;DHT22;454;53.254;10.400;2023-03-24T06:46:09;11.70;99.90
935;DHT22;454;53.254;10.400;2023-03-24T06:48:36;11.60;99.90
935;DHT22;454;53.254;10.400;2023-03-24T06:51:04;11.70;99.90
935;DHT22;454;53.254;10.400;2023-03-24T06:53:31;11.70;99.90
935;DHT22;454;53.254;10.400;2023-03-24T06:55:58;11.70;99.90
935;DHT22;454;53.254;10.400;2023-03-24T06:58:25;11.70;99.90
935;DHT22;454;53.254;10.400;2023-03-24T07:00:53;11.80;99.90
935;DHT22;454;53.254;10.400;2023-03-24T07:03:20;11.70;99.90
935;DHT22;454;53.254;10.400;2023-03-24T07:05:48;11.70;99.90
935;DHT22;454;53.254;10.400;2023-03-24T07:08:14;11.70;99.90
935;DHT22;454;53.254;10.400;2023-03-24T07:10:42;11.70;99.90
935;DHT22;454;53.254;10.400;2023-03-24T07:13:09;11.80;99.90
935;DHT22;454;53.254;10.400;2023-03-24T07:15:36;11.80;99.90
935;DHT22;454;53.254;10.400;2023-03-24T07:18:04;11.80;99.90
935;DHT22;454;53.254;10.400;2023-03-24T07:20:31;11.90;99.90
935;DHT22;454;53.254;10.400;2023-03-24T07:22:57;11.90;99.90
935;DHT22;454;53.254;10.400;2023-03-24T07:25:24;11.90;99.90
935;DHT22;454;53.254;10.400;2023-03-24T07:27:53;11.90;99.90
935;DHT22;454;53.254;10.400;2023-03-24T07:30:20;12.00;99.90
935;DHT22;454;53.254;10.400;2023-03-24T07:32:48;12.00;99.90
935;DHT22;454;53.254;10.400;2023-03-24T07:35:17;12.00;99.90
935;DHT22;454;53.254;10.400;2023-03-24T07:37:44;12.10;99.90
935;DHT22;454;53.254;10.400;2023-03-24T07:40:12;12.10;99.90
935;DHT22;454;53.254;10.400;2023-03-24T07:42:41;12.20;99.90
935;DHT22;454;53.254;10.400;2023-03-24T07:45:09;12.30;99.90
935;DHT22;454;53.254;10.400;2023-03-24T07:47:36;12.30;99.90
935;DHT22;454;53.254;10.400;2023-03-24T07:50:06;12.30;99.90
935;DHT22;454;53.254;10.400;2023-03-24T07:52:36;12.30;99.90
935;DHT22;454;53.254;10.400;2023-03-24T07:55:05;12.40;99.90
935;DHT22;454;53.254;10.400;2023-03-24T07:57:32;12.40;99.90
935;DHT22;454;53.254;10.400;2023-03-24T08:00:01;12.40;99.90
935;DHT22;454;53.254;10.400;2023-03-24T08:02:31;12.40;99.90
935;DHT22;454;53.254;10.400;2023-03-24T08:04:57;12.50;99.90
935;DHT22;454;53.254;10.400;2023-03-24T08:07:24;12.50;99.90
935;DHT22;454;53.254;10.400;2023-03-24T08:09:52;12.50;99.90
935;DHT22;454;53.254;10.400;2023-03-24T08:12:19;12.50;99.90
935;DHT22;454;53.254;10.400;2023-03-24T08:14:45;12.50;99.90
935;DHT22;454;53.254;10.400;2023-03-24T08:17:12;12.50;99.90
935;DHT22;454;53.254;10.400;2023-03-24T08:19:39;12.50;99.90
935;DHT22;454;53.254;10.400;2023-03-24T08:22:06;12.60;99.90
935;DHT22;454;53.254;10.400;2023-03-24T08:24:35;12.60;99.90
935;DHT22;454;53.254;10.400;2023-03-24T08:27:03;12.70;99.90
935;DHT22;454;53.254;10.400;2023-03-24T08:29:30;12.80;99.90
935;DHT22;454;53.254;10.400;2023-03-24T08:31:58;12.80;99.90
935;DHT22;454;53.254;10.400;2023-03-24T08:34:25;12.90;99.90
935;DHT22;454;53.254;10.400;2023-03-24T08:36:52;12.90;99.90
935;DHT22;454;53.254;10.400;2023-03-24T08:39:19;13.00;99.90
935;DHT22;454;53.254;10.400;2023-03-24T08:41:46;12.90;99.90
935;DHT22;454;53.254;10.400;2023-03-24T08:44:16;12.80;99.90
935;DHT22;454;53.254;10.400;2023-03-24T08:46:42;12.80;99.90
935;DHT22;454;53.254;10.400;2023-03-24T08:49:09;12.80;99.90
935;DHT22;454;53.254;10.400;2023-03-24T08:51:36;12.80;99.90
935;DHT22;454;53.254;10.400;2023-03-24T08:54:02;12.90;99.90
935;DHT22;454;53.254;10.400;2023-03-24T08:56:30;12.90;99.90
935;DHT22;454;53.254;10.400;2023-03-24T08:58:57;13.00;99.90
935;DHT22;454;53.254;10.400;2023-03-24T09:01:25;13.00;99.90
935;DHT22;454;53.254;10.400;2023-03-24T09:03:51;13.00;99.90
935;DHT22;454;53.254;10.400;2023-03-24T09:06:18;13.10;99.90
935;DHT22;454;53.254;10.400;2023-03-24T09:08:45;13.10;99.90
935;DHT22;454;53.254;10.400;2023-03-24T09:11:14;13.20;99.90
935;DHT22;454;53.254;10.400;2023-03-24T09:13:42;13.20;99.90
935;DHT22;454;53.254;10.400;2023-03-24T09:16:09;13.30;99.90
935;DHT22;454;53.254;10.400;2023-03-24T09:18:37;13.30;99.90
935;DHT22;454;53.254;10.400;2023-03-24T09:21:05;13.40;99.90
935;DHT22;454;53.254;10.400;2023-03-24T09:23:32;13.50;99.90
935;DHT22;454;53.254;10.400;2023-03-24T09:25:59;13.50;99.90
935;DHT22;454;53.254;10.400;2023-03-24T09:28:26;13.50;99.90
935;DHT22;454;53.254;10.400;2023-03-24T09:30:56;13.30;99.90
935;DHT22;454;53.254;10.400;2023-03-24T09:33:24;13.30;99.90
935;DHT22;454;53.254;10.400;2023-03-24T09:35:55;13.20;99.90
935;DHT22;454;53.254;10.400;2023-03-24T09:38:22;13.20;99.90
935;DHT22;454;53.254;10.400;2023-03-24T09:40:53;13.30;99.90
935;DHT22;454;53.254;10.400;2023-03-24T09:43:25;13.30;99.90
935;DHT22;454;53.254;10.400;2023-03-24T09:45:57;13.30;99.90
935;DHT22;454;53.254;10.400;2023-03-24T09:48:30;13.30;99.90
935;DHT22;454;53.254;10.400;2023-03-24T09:51:02;13.40;99.90
935;DHT22;454;53.254;10.400;2023-03-24T09:53:35;13.50;99.90
935;DHT22;454;53.254;10.400;2023-03-24T09:56:11;13.70;99.90
935;DHT22;454;53.254;10.400;2023-03-24T09:58:39;13.80;99.90
935;DHT22;454;53.254;10.400;2023-03-24T10:01:11;13.80;99.90
935;DHT22;454;53.254;10.400;2023-03-24T10:03:39;13.90;99.90
935;DHT22;454;53.254;10.400;2023-03-24T10:06:10;13.90;99.90
935;DHT22;454;53.254;10.400;2023-03-24T10:08:43;14.00;99.90
935;DHT22;454;53.254;10.400;2023-03-24T10:11:18;13.90;99.90
935;DHT22;454;53.254;10.400;2023-03-24T10:14:02;13.70;99.90
935;DHT22;454;53.254;10.400;2023-03-24T10:16:37;13.60;99.90
935;DHT22;454;53.254;10.400;2023-03-24T10:19:18;13.60;99.90
935;DHT22;454;53.254;10.400;2023-03-24T10:21:54;13.60;99.90
935;DHT22;454;53.254;10.400;2023-03-24T10:24:27;13.70;99.90
935;DHT22;454;53.254;10.400;2023-03-24T10:27:00;13.70;99.90
935;DHT22;454;53.254;10.400;2023-03-24T10:29:30;13.70;99.90
935;DHT22;454;53.254;10.400;2023-03-24T10:31:59;13.80;99.90
935;DHT22;454;53.254;10.400;2023-03-24T10:34:30;13.70;99.90
935;DHT22;454;53.254;10.400;2023-03-24T10:37:00;13.70;99.90
935;DHT22;454;53.254;10.400;2023-03-24T10:39:29;13.80;99.90
935;DHT22;454;53.254;10.400;2023-03-24T10:41:57;14.00;99.90
935;DHT22;454;53.254;10.400;2023-03-24T10:44:24;14.30;99.90
935;DHT22;454;53.254;10.400;2023-03-24T10:46:54;14.40;99.90
935;DHT22;454;53.254;10.400;2023-03-24T10:49:23;14.40;99.90
935;DHT22;454;53.254;10.400;2023-03-24T10:51:51;14.40;99.90
935;DHT22;454;53.254;10.400;2023-03-24T10:54:23;14.40;99.90
935;DHT22;454;53.254;10.400;2023-03-24T10:57:00;14.20;99.90
935;DHT22;454;53.254;10.400;2023-03-24T10:59:30;14.00;99.90
935;DHT22;454;53.254;10.400;2023-03-24T11:02:10;13.90;99.90
935;DHT22;454;53.254;10.400;2023-03-24T11:04:43;13.90;99.90
935;DHT22;454;53.254;10.400;2023-03-24T11:07:15;14.00;99.90
935;DHT22;454;53.254;10.400;2023-03-24T11:09:47;14.00;99.90
935;DHT22;454;53.254;10.400;2023-03-24T11:12:23;14.00;99.90
935;DHT22;454;53.254;10.400;2023-03-24T11:14:50;14.00;99.90
935;DHT22;454;53.254;10.400;2023-03-24T11:17:19;14.00;99.90
935;DHT22;454;53.254;10.400;2023-03-24T11:19:51;14.00;99.90
935;DHT22;454;53.254;10.400;2023-03-24T11:22:18;14.10;99.90
935;DHT22;454;53.254;10.400;2023-03-24T11:24:49;14.10;99.90
935;DHT22;454;53.254;10.400;2023-03-24T11:27:17;14.00;99.90
935;DHT22;454;53.254;10.400;2023-03-24T11:29:48;14.00;99.90
935;DHT22;454;53.254;10.400;2023-03-24T11:32:20;14.10;99.90
935;DHT22;454;53.254;10.400;2023-03-24T11:34:52;14.20;99.90
935;DHT22;454;53.254;10.400;2023-03-24T11:37:23;14.30;99.90
935;DHT22;454;53.254;10.400;2023-03-24T11:40:15;14.40;99.90
935;DHT22;454;53.254;10.400;2023-03-24T11:42:43;14.50;99.90
935;DHT22;454;53.254;10.400;2023-03-24T11:45:20;14.60;99.90
935;DHT22;454;53.254;10.400;2023-03-24T11:47:50;14.60;99.90
935;DHT22;454;53.254;10.400;2023-03-24T11:50:20;14.60;99.90
935;DHT22;454;53.254;10.400;2023-03-24T11:52:52;14.60;99.90
935;DHT22;454;53.254;10.400;2023-03-24T11:55:26;14.70;99.90
935;DHT22;454;53.254;10.400;2023-03-24T11:57:58;14.60;99.90
935;DHT22;454;53.254;10.400;2023-03-24T12:00:30;14.70;99.90
935;DHT22;454;53.254;10.400;2023-03-24T12:06:09;14.80;99.90
935;DHT22;454;53.254;10.400;2023-03-24T12:08:47;15.00;99.90
935;DHT22;454;53.254;10.400;2023-03-24T12:11:23;15.00;99.90
935;DHT22;454;53.254;10.400;2023-03-24T12:13:53;15.00;99.90
935;DHT22;454;53.254;10.400;2023-03-24T12:16:36;15.00;99.90
935;DHT22;454;53.254;10.400;2023-03-24T12:19:36;14.90;99.90
935;DHT22;454;53.254;10.400;2023-03-24T12:22:16;14.90;99.90
935;DHT22;454;53.254;10.400;2023-03-24T12:25:01;14.90;99.90
935;DHT22;454;53.254;10.400;2023-03-24T12:27:36;14.80;99.90
935;DHT22;454;53.254;10.400;2023-03-24T12:30:11;14.70;99.90
935;DHT22;454;53.254;10.400;2023-03-24T12:32:55;14.70;99.90
935;DHT22;454;53.254;10.400;2023-03-24T12:35:36;14.70;99.90
935;DHT22;454;53.254;10.400;2023-03-24T12:38:17;14.90;99.90
935;DHT22;454;53.254;10.400;2023-03-24T12:41:13;15.10;99.90
935;DHT22;454;53.254;10.400;2023-03-24T12:43:49;15.30;99.90
935;DHT22;454;53.254;10.400;2023-03-24T12:46:31;15.20;99.90
935;DHT22;454;53.254;10.400;2023-03-24T12:49:15;15.10;99.90
935;DHT22;454;53.254;10.400;2023-03-24T12:51:51;15.00;99.90
935;DHT22;454;53.254;10.400;2023-03-24T12:54:27;14.90;99.90
935;DHT22;454;53.254;10.400;2023-03-24T12:57:00;14.80;99.90
935;DHT22;454;53.254;10.400;2023-03-24T12:59:34;14.70;99.90
935;DHT22;454;53.254;10.400;2023-03-24T13:02:12;14.80;99.90
935;DHT22;454;53.254;10.400;2023-03-24T13:04:44;14.80;99.90
935;DHT22;454;53.254;10.400;2023-03-24T13:07:17;15.00;99.90
935;DHT22;454;53.254;10.400;2023-03-24T13:09:49;15.00;99.90
935;DHT22;454;53.254;10.400;2023-03-24T13:12:20;15.00;99.90
935;DHT22;454;53.254;10.400;2023-03-24T13:14:59;15.00;99.90
935;DHT22;454;53.254;10.400;2023-03-24T13:17:31;14.90;99.90
935;DHT22;454;53.254;10.400;2023-03-24T13:20:01;15.00;99.90
935;DHT22;454;53.254;10.400;2023-03-24T13:22:32;14.90;99.90
935;DHT22;454;53.254;10.400;2023-03-24T13:25:00;14.80;99.90
935;DHT22;454;53.254;10.400;2023-03-24T13:27:32;14.80;99.90
935;DHT22;454;53.254;10.400;2023-03-24T13:30:14;14.70;99.90
935;DHT22;454;53.254;10.400;2023-03-24T13:32:47;14.70;99.90
935;DHT22;454;53.254;10.400;2023-03-24T13:35:22;14.70;99.90
935;DHT22;454;53.254;10.400;2023-03-24T13:37:55;14.70;99.90
935;DHT22;454;53.254;10.400;2023-03-24T13:40:27;14.70;99.90
935;DHT22;454;53.254;10.400;2023-03-24T13:42:58;14.70;99.90
935;DHT22;454;53.254;10.400;2023-03-24T13:45:35;14.80;99.90
935;DHT22;454;53.254;10.400;2023-03-24T13:48:20;14.90;99.90
935;DHT22;454;53.254;10.400;2023-03-24T13:50:54;15.00;99.90
935;DHT22;454;53.254;10.400;2023-03-24T13:53:29;15.00;99.90
935;DHT22;454;53.254;10.400;2023-03-24T13:55:58;15.00;99.90
935;DHT22;454;53.254;10.400;2023-03-24T13:58:44;14.80;99.90
935;DHT22;454;53.254;10.400;2023-03-24T14:01:19;14.80;99.90
935;DHT22;454;53.254;10.400;2023-03-24T14:04:17;14.80;99.90
935;DHT22;454;53.254;10.400;2023-03-24T14:06:47;14.80;99.90
935;DHT22;454;53.254;10.400;2023-03-24T14:09:16;14.80;99.90
935;DHT22;454;53.254;10.400;2023-03-24T14:14:33;14.90;99.90
935;DHT22;454;53.254;10.400;2023-03-24T14:17:14;15.00;99.90
935;DHT22;454;53.254;10.400;2023-03-24T14:19:42;15.10;99.90
935;DHT22;454;53.254;10.400;2023-03-24T14:22:12;15.10;99.90
935;DHT22;454;53.254;10.400;2023-03-24T14:24:40;15.00;99.90
935;DHT22;454;53.254;10.400;2023-03-24T14:27:30;15.00;99.90
935;DHT22;454;53.254;10.400;2023-03-24T14:29:59;14.90;99.90
935;DHT22;454;53.254;10.400;2023-03-24T14:32:28;14.90;99.90
935;DHT22;454;53.254;10.400;2023-03-24T14:34:56;14.90;99.90
935;DHT22;454;53.254;10.400;2023-03-24T14:37:25;15.00;99.90
935;DHT22;454;53.254;10.400;2023-03-24T14:39:53;14.90;99.90
935;DHT22;454;53.254;10.400;2023-03-24T14:45:39;14.90;99.90
935;DHT22;454;53.254;10.400;2023-03-24T14:48:30;15.00;99.90
935;DHT22;454;53.254;10.400;2023-03-24T14:51:02;15.10;99.90
935;DHT22;454;53.254;10.400;2023-03-24T14:53:29;15.10;99.90
935;DHT22;454;53.254;10.400;2023-03-24T14:55:56;15.10;99.90
935;DHT22;454;53.254;10.400;2023-03-24T14:58:29;15.20;99.90
935;DHT22;454;53.254;10.400;2023-03-24T15:00:59;15.20;99.90
935;DHT22;454;53.254;10.400;2023-03-24T15:03:31;15.10;99.90
935;DHT22;454;53.254;10.400;2023-03-24T15:06:13;15.10;99.90
935;DHT22;454;53.254;10.400;2023-03-24T15:08:44;15.10;99.90
935;DHT22;454;53.254;10.400;2023-03-24T15:11:14;15.10;99.90
935;DHT22;454;53.254;10.400;2023-03-24T15:13:43;15.00;99.90
935;DHT22;454;53.254;10.400;2023-03-24T15:16:18;14.90;99.90
935;DHT22;454;53.254;10.400;2023-03-24T15:18:48;14.80;99.90
935;DHT22;454;53.254;10.400;2023-03-24T15:21:22;14.70;99.90
935;DHT22;454;53.254;10.400;2023-03-24T15:23:50;14.70;99.90
935;DHT22;454;53.254;10.400;2023-03-24T15:26:19;14.60;99.90
935;DHT22;454;53.254;10.400;2023-03-24T15:28:54;14.70;99.90
935;DHT22;454;53.254;10.400;2023-03-24T15:31:21;14.90;99.90
935;DHT22;454;53.254;10.400;2023-03-24T15:33:51;15.00;99.90
935;DHT22;454;53.254;10.400;2023-03-24T15:36:21;15.00;99.90
935;DHT22;454;53.254;10.400;2023-03-24T15:38:50;15.00;99.90
935;DHT22;454;53.254;10.400;2023-03-24T15:41:19;14.90;99.90
935;DHT22;454;53.254;10.400;2023-03-24T15:43:51;14.90;99.90
935;DHT22;454;53.254;10.400;2023-03-24T15:46:22;14.90;99.90
935;DHT22;454;53.254;10.400;2023-03-24T15:48:51;14.80;99.90
935;DHT22;454;53.254;10.400;2023-03-24T15:51:18;14.70;99.90
935;DHT22;454;53.254;10.400;2023-03-24T15:53:49;14.60;99.90
935;DHT22;454;53.254;10.400;2023-03-24T15:56:25;14.60;99.90
935;DHT22;454;53.254;10.400;2023-03-24T15:58:53;14.50;99.90
935;DHT22;454;53.254;10.400;2023-03-24T16:01:24;14.50;99.90
935;DHT22;454;53.254;10.400;2023-03-24T16:03:58;14.40;99.90
935;DHT22;454;53.254;10.400;2023-03-24T16:06:27;14.40;99.90
935;DHT22;454;53.254;10.400;2023-03-24T16:08:57;14.20;99.90
935;DHT22;454;53.254;10.400;2023-03-24T16:11:25;14.20;99.90
935;DHT22;454;53.254;10.400;2023-03-24T16:13:52;14.10;99.90
935;DHT22;454;53.254;10.400;2023-03-24T16:16:23;14.00;99.90
935;DHT22;454;53.254;10.400;2023-03-24T16:18:52;14.00;99.90
935;DHT22;454;53.254;10.400;2023-03-24T16:21:22;13.90;99.90
935;DHT22;454;53.254;10.400;2023-03-24T16:23:51;13.80;99.90
935;DHT22;454;53.254;10.400;2023-03-24T16:26:19;13.80;99.90
935;DHT22;454;53.254;10.400;2023-03-24T16:28:46;13.70;99.90
935;DHT22;454;53.254;10.400;2023-03-24T16:31:19;13.60;99.90
935;DHT22;454;53.254;10.400;2023-03-24T16:33:47;13.50;99.90
935;DHT22;454;53.254;10.400;2023-03-24T16:36:14;13.50;99.90
935;DHT22;454;53.254;10.400;2023-03-24T16:38:43;13.50;99.90
935;DHT22;454;53.254;10.400;2023-03-24T16:41:11;13.40;99.90
935;DHT22;454;53.254;10.400;2023-03-24T16:43:39;13.30;99.90
935;DHT22;454;53.254;10.400;2023-03-24T16:46:10;13.20;99.90
935;DHT22;454;53.254;10.400;2023-03-24T16:48:37;13.20;99.90
935;DHT22;454;53.254;10.400;2023-03-24T16:51:05;13.10;99.90
935;DHT22;454;53.254;10.400;2023-03-24T16:53:31;12.90;99.90
935;DHT22;454;53.254;10.400;2023-03-24T16:56:00;13.00;99.90
935;DHT22;454;53.254;10.400;2023-03-24T16:58:26;12.90;99.90
935;DHT22;454;53.254;10.400;2023-03-24T17:00:54;12.90;99.90
935;DHT22;454;53.254;10.400;2023-03-24T17:03:23;12.80;99.90
935;DHT22;454;53.254;10.400;2023-03-24T17:05:54;12.70;99.90
935;DHT22;454;53.254;10.400;2023-03-24T17:08:22;12.60;99.90
935;DHT22;454;53.254;10.400;2023-03-24T17:10:51;12.50;99.90
935;DHT22;454;53.254;10.400;2023-03-24T17:13:20;12.40;99.90
935;DHT22;454;53.254;10.400;2023-03-24T17:15:48;12.40;99.90
935;DHT22;454;53.254;10.400;2023-03-24T17:18:16;12.30;99.90
935;DHT22;454;53.254;10.400;2023-03-24T17:20:43;12.20;99.90
935;DHT22;454;53.254;10.400;2023-03-24T17:23:12;12.10;99.90
935;DHT22;454;53.254;10.400;2023-03-24T17:25:39;12.00;99.90
935;DHT22;454;53.254;10.400;2023-03-24T17:28:11;12.00;99.90
935;DHT22;454;53.254;10.400;2023-03-24T17:30:40;11.90;99.90
935;DHT22;454;53.254;10.400;2023-03-24T17:33:11;11.90;99.90
935;DHT22;454;53.254;10.400;2023-03-24T17:35:38;11.90;99.90
935;DHT22;454;53.254;10.400;2023-03-24T17:38:05;11.80;99.90
935;DHT22;454;53.254;10.400;2023-03-24T17:40:31;11.80;99.90
935;DHT22;454;53.254;10.400;2023-03-24T17:42:58;11.80;99.90
935;DHT22;454;53.254;10.400;2023-03-24T17:45:25;11.70;99.90
935;DHT22;454;53.254;10.400;2023-03-24T17:47:53;11.70;99.90
935;DHT22;454;53.254;10.400;2023-03-24T17:50:20;11.60;99.90
935;DHT22;454;53.254;10.400;2023-03-24T17:52:47;11.60;99.90
935;DHT22;454;53.254;10.400;2023-03-24T17:55:15;11.50;99.90
935;DHT22;454;53.254;10.400;2023-03-24T17:57:43;11.50;99.90
935;DHT22;454;53.254;10.400;2023-03-24T18:00:11;11.40;99.90
935;DHT22;454;53.254;10.400;2023-03-24T18:02:39;11.40;99.90
935;DHT22;454;53.254;10.400;2023-03-24T18:05:09;11.40;99.90
935;DHT22;454;53.254;10.400;2023-03-24T18:07:37;11.30;99.90
935;DHT22;454;53.254;10.400;2023-03-24T18:10:05;11.30;99.90
935;DHT22;454;53.254;10.400;2023-03-24T18:12:32;11.30;99.90
935;DHT22;454;53.254;10.400;2023-03-24T18:15:00;11.20;99.90
935;DHT22;454;53.254;10.400;2023-03-24T18:17:27;11.20;99.90
935;DHT22;454;53.254;10.400;2023-03-24T18:19:53;11.20;99.90
935;DHT22;454;53.254;10.400;2023-03-24T18:22:22;11.20;99.90
935;DHT22;454;53.254;10.400;2023-03-24T18:24:49;11.10;99.90
935;DHT22;454;53.254;10.400;2023-03-24T18:27:16;11.10;99.90
935;DHT22;454;53.254;10.400;2023-03-24T18:29:43;11.10;99.90
935;DHT22;454;53.254;10.400;2023-03-24T18:32:10;11.10;99.90
935;DHT22;454;53.254;10.400;2023-03-24T18:34:36;11.00;99.90
935;DHT22;454;53.254;10.400;2023-03-24T18:37:09;11.00;99.90
935;DHT22;454;53.254;10.400;2023-03-24T18:39:37;10.90;99.90
935;DHT22;454;53.254;10.400;2023-03-24T18:42:05;10.90;99.90
935;DHT22;454;53.254;10.400;2023-03-24T18:44:32;10.90;99.90
935;DHT22;454;53.254;10.400;2023-03-24T18:46:59;10.80;99.90
935;DHT22;454;53.254;10.400;2023-03-24T18:49:26;10.80;99.90
935;DHT22;454;53.254;10.400;2023-03-24T18:51:53;10.80;99.90
935;DHT22;454;53.254;10.400;2023-03-24T18:54:19;10.80;99.90
935;DHT22;454;53.254;10.400;2023-03-24T18:56:48;10.80;99.90
935;DHT22;454;53.254;10.400;2023-03-24T18:59:15;10.70;99.90
935;DHT22;454;53.254;10.400;2023-03-24T19:01:42;10.70;99.90
935;DHT22;454;53.254;10.400;2023-03-24T19:04:13;10.60;99.90
935;DHT22;454;53.254;10.400;2023-03-24T19:06:39;10.60;99.90
935;DHT22;454;53.254;10.400;2023-03-24T19:09:08;10.60;99.90
935;DHT22;454;53.254;10.400;2023-03-24T19:11:35;10.50;99.90
935;DHT22;454;53.254;10.400;2023-03-24T19:14:03;10.50;99.90
935;DHT22;454;53.254;10.400;2023-03-24T19:16:31;10.40;99.90
935;DHT22;454;53.254;10.400;2023-03-24T19:18:58;10.40;99.90
935;DHT22;454;53.254;10.400;2023-03-24T19:21:25;10.40;99.90
935;DHT22;454;53.254;10.400;2023-03-24T19:23:52;10.40;99.90
935;DHT22;454;53.254;10.400;2023-03-24T19:26:19;10.30;99.90
935;DHT22;454;53.254;10.400;2023-03-24T19:28:46;10.30;99.90
935;DHT22;454;53.254;10.400;2023-03-24T19:31:16;10.30;99.90
935;DHT22;454;53.254;10.400;2023-03-24T19:33:44;10.20;99.90
935;DHT22;454;53.254;10.400;2023-03-24T19:36:11;10.20;99.90
935;DHT22;454;53.254;10.400;2023-03-24T19:38:38;10.20;99.90
935;DHT22;454;53.254;10.400;2023-03-24T19:41:07;10.20;99.90
935;DHT22;454;53.254;10.400;2023-03-24T19:43:34;10.10;99.90
935;DHT22;454;53.254;10.400;2023-03-24T19:46:01;10.10;99.90
935;DHT22;454;53.254;10.400;2023-03-24T19:48:30;10.00;99.90
935;DHT22;454;53.254;10.400;2023-03-24T19:50:56;10.00;99.90
935;DHT22;454;53.254;10.400;2023-03-24T19:53:23;9.90;99.90
935;DHT22;454;53.254;10.400;2023-03-24T19:55:54;9.90;99.90
935;DHT22;454;53.254;10.400;2023-03-24T19:58:21;9.80;99.90
935;DHT22;454;53.254;10.400;2023-03-24T20:00:47;9.80;99.90
935;DHT22;454;53.254;10.400;2023-03-24T20:03:15;9.80;99.90
935;DHT22;454;53.254;10.400;2023-03-24T20:05:43;9.70;99.90
935;DHT22;454;53.254;10.400;2023-03-24T20:08:10;9.70;99.90
935;DHT22;454;53.254;10.400;2023-03-24T20:10:37;9.70;99.90
935;DHT22;454;53.254;10.400;2023-03-24T20:13:04;9.60;99.90
935;DHT22;454;53.254;10.400;2023-03-24T20:15:31;9.60;99.90
935;DHT22;454;53.254;10.400;2023-03-24T20:17:58;9.60;99.90
935;DHT22;454;53.254;10.400;2023-03-24T20:20:25;9.60;99.90
935;DHT22;454;53.254;10.400;2023-03-24T20:22:53;9.60;99.90
935;DHT22;454;53.254;10.400;2023-03-24T20:25:20;9.50;99.90
935;DHT22;454;53.254;10.400;2023-03-24T20:27:46;9.50;99.90
935;DHT22;454;53.254;10.400;2023-03-24T20:30:14;9.60;99.90
935;DHT22;454;53.254;10.400;2023-03-24T20:32:41;9.60;99.90
935;DHT22;454;53.254;10.400;2023-03-24T20:35:09;9.60;99.90
935;DHT22;454;53.254;10.400;2023-03-24T20:37:36;9.60;99.90
935;DHT22;454;53.254;10.400;2023-03-24T20:40:07;9.50;99.90
935;DHT22;454;53.254;10.400;2023-03-24T20:42:35;9.50;99.90
935;DHT22;454;53.254;10.400;2023-03-24T20:45:02;9.50;99.90
935;DHT22;454;53.254;10.400;2023-03-24T20:47:29;9.50;99.90
935;DHT22;454;53.254;10.400;2023-03-24T20:49:56;9.40;99.90
935;DHT22;454;53.254;10.400;2023-03-24T20:52:22;9.40;99.90
935;DHT22;454;53.254;10.400;2023-03-24T20:54:50;9.40;99.90
935;DHT22;454;53.254;10.400;2023-03-24T20:57:19;9.30;99.90
935;DHT22;454;53.254;10.400;2023-03-24T20:59:46;9.30;99.90
935;DHT22;454;53.254;10.400;2023-03-24T21:02:13;9.30;99.90
935;DHT22;454;53.254;10.400;2023-03-24T21:04:40;9.30;99.90
935;DHT22;454;53.254;10.400;2023-03-24T21:07:07;9.20;99.90
935;DHT22;454;53.254;10.400;2023-03-24T21:09:34;9.20;99.90
935;DHT22;454;53.254;10.400;2023-03-24T21:12:01;9.20;99.90
935;DHT22;454;53.254;10.400;2023-03-24T21:14:29;9.10;99.90
935;DHT22;454;53.254;10.400;2023-03-24T21:16:56;9.10;99.90
935;DHT22;454;53.254;10.400;2023-03-24T21:19:23;9.10;99.90
935;DHT22;454;53.254;10.400;2023-03-24T21:21:50;9.10;99.90
935;DHT22;454;53.254;10.400;2023-03-24T21:24:18;9.10;99.90
935;DHT22;454;53.254;10.400;2023-03-24T21:26:45;9.10;99.90
935;DHT22;454;53.254;10.400;2023-03-24T21:29:13;9.10;99.90
935;DHT22;454;53.254;10.400;2023-03-24T21:31:42;9.10;99.90
935;DHT22;454;53.254;10.400;2023-03-24T21:34:09;9.10;99.90
935;DHT22;454;53.254;10.400;2023-03-24T21:36:35;9.10;99.90
935;DHT22;454;53.254;10.400;2023-03-24T21:39:03;9.10;99.90
935;DHT22;454;53.254;10.400;2023-03-24T21:41:32;9.10;99.90
935;DHT22;454;53.254;10.400;2023-03-24T21:43:58;9.10;99.90